sensor_id;sensor_type;location;lat;lon;timestamp;P1;durP1;ratioP1;P2;durP2;ratioP2
6203;SDS011;3135;42.602;23.468;2023-01-10T00:00:37;19.30;;;7.40;;
6203;SDS011;3135;42.602;23.468;2023-01-10T00:03:04;15.90;;;7.53;;
6203;SDS011;3135;42.602;23.468;2023-01-10T00:05:31;15.73;;;6.78;;
6203;SDS011;3135;42.602;23.468;2023-01-10T00:07:57;15.33;;;6.97;;
6203;SDS011;3135;42.602;23.468;2023-01-10T00:10:23;17.70;;;7.15;;
6203;SDS011;3135;42.602;23.468;2023-01-10T00:12:49;23.13;;;9.38;;
6203;SDS011;3135;42.602;23.468;2023-01-10T00:15:34;17.13;;;7.32;;
6203;SDS011;3135;42.602;23.468;2023-01-10T00:18:00;21.95;;;8.02;;
6203;SDS011;3135;42.602;23.468;2023-01-10T00:20:26;19.02;;;7.90;;
6203;SDS011;3135;42.602;23.468;2023-01-10T00:22:51;21.93;;;8.87;;
6203;SDS011;3135;42.602;23.468;2023-01-10T00:25:16;22.77;;;8.60;;
6203;SDS011;3135;42.602;23.468;2023-01-10T00:27:45;20.10;;;8.55;;
6203;SDS011;3135;42.602;23.468;2023-01-10T00:30:17;22.55;;;9.23;;
6203;SDS011;3135;42.602;23.468;2023-01-10T00:32:43;19.15;;;7.32;;
6203;SDS011;3135;42.602;23.468;2023-01-10T00:35:10;19.92;;;8.32;;
6203;SDS011;3135;42.602;23.468;2023-01-10T00:37:37;22.10;;;9.10;;
6203;SDS011;3135;42.602;23.468;2023-01-10T00:40:04;20.58;;;7.68;;
6203;SDS011;3135;42.602;23.468;2023-01-10T00:42:34;18.63;;;7.85;;
6203;SDS011;3135;42.602;23.468;2023-01-10T00:45:19;21.23;;;8.53;;
6203;SDS011;3135;42.602;23.468;2023-01-10T00:47:46;19.75;;;8.02;;
6203;SDS011;3135;42.602;23.468;2023-01-10T00:50:12;16.42;;;6.72;;
6203;SDS011;3135;42.602;23.468;2023-01-10T00:52:38;18.67;;;7.80;;
6203;SDS011;3135;42.602;23.468;2023-01-10T00:55:04;20.77;;;8.23;;
6203;SDS011;3135;42.602;23.468;2023-01-10T00:57:29;18.35;;;7.03;;
6203;SDS011;3135;42.602;23.468;2023-01-10T00:59:55;18.53;;;7.20;;
6203;SDS011;3135;42.602;23.468;2023-01-10T01:02:20;17.70;;;7.80;;
6203;SDS011;3135;42.602;23.468;2023-01-10T01:04:46;18.90;;;7.55;;
6203;SDS011;3135;42.602;23.468;2023-01-10T01:07:11;16.13;;;7.40;;
6203;SDS011;3135;42.602;23.468;2023-01-10T01:09:37;14.03;;;6.37;;
6203;SDS011;3135;42.602;23.468;2023-01-10T01:12:22;17.73;;;6.47;;
6203;SDS011;3135;42.602;23.468;2023-01-10T01:14:47;18.17;;;6.77;;
6203;SDS011;3135;42.602;23.468;2023-01-10T01:17:13;15.37;;;6.40;;
6203;SDS011;3135;42.602;23.468;2023-01-10T01:19:38;11.97;;;5.37;;
6203;SDS011;3135;42.602;23.468;2023-01-10T01:22:04;13.67;;;6.03;;
6203;SDS011;3135;42.602;23.468;2023-01-10T01:24:29;14.90;;;6.73;;
6203;SDS011;3135;42.602;23.468;2023-01-10T01:26:54;13.20;;;5.13;;
6203;SDS011;3135;42.602;23.468;2023-01-10T01:29:20;11.15;;;5.20;;
6203;SDS011;3135;42.602;23.468;2023-01-10T01:31:46;14.90;;;6.18;;
6203;SDS011;3135;42.602;23.468;2023-01-10T01:34:11;17.10;;;7.00;;
6203;SDS011;3135;42.602;23.468;2023-01-10T01:36:36;15.40;;;6.63;;
6203;SDS011;3135;42.602;23.468;2023-01-10T01:39:02;17.10;;;6.53;;
6203;SDS011;3135;42.602;23.468;2023-01-10T01:41:28;15.43;;;6.95;;
6203;SDS011;3135;42.602;23.468;2023-01-10T01:44:16;16.88;;;6.93;;
6203;SDS011;3135;42.602;23.468;2023-01-10T01:46:44;20.50;;;8.20;;
6203;SDS011;3135;42.602;23.468;2023-01-10T01:49:19;17.42;;;6.13;;
6203;SDS011;3135;42.602;23.468;2023-01-10T01:51:49;19.13;;;7.40;;
6203;SDS011;3135;42.602;23.468;2023-01-10T01:54:20;16.43;;;6.77;;
6203;SDS011;3135;42.602;23.468;2023-01-10T01:56:50;17.60;;;7.05;;
6203;SDS011;3135;42.602;23.468;2023-01-10T01:59:27;24.65;;;10.25;;
6203;SDS011;3135;42.602;23.468;2023-01-10T02:02:03;18.77;;;8.23;;
6203;SDS011;3135;42.602;23.468;2023-01-10T02:04:55;19.20;;;7.50;;
6203;SDS011;3135;42.602;23.468;2023-01-10T02:07:24;20.00;;;7.95;;
6203;SDS011;3135;42.602;23.468;2023-01-10T02:09:56;22.15;;;8.93;;
6203;SDS011;3135;42.602;23.468;2023-01-10T02:12:25;26.33;;;10.03;;
6203;SDS011;3135;42.602;23.468;2023-01-10T02:14:53;115.50;;;25.65;;
6203;SDS011;3135;42.602;23.468;2023-01-10T02:17:18;23.80;;;8.63;;
6203;SDS011;3135;42.602;23.468;2023-01-10T02:19:51;20.10;;;8.67;;
6203;SDS011;3135;42.602;23.468;2023-01-10T02:36:35;17.43;;;8.10;;
6203;SDS011;3135;42.602;23.468;2023-01-10T02:39:30;11.93;;;6.20;;
6203;SDS011;3135;42.602;23.468;2023-01-10T02:42:07;10.18;;;5.60;;
6203;SDS011;3135;42.602;23.468;2023-01-10T02:44:49;16.17;;;6.53;;
6203;SDS011;3135;42.602;23.468;2023-01-10T02:47:22;13.32;;;6.18;;
6203;SDS011;3135;42.602;23.468;2023-01-10T02:49:48;11.73;;;5.80;;
6203;SDS011;3135;42.602;23.468;2023-01-10T02:52:19;13.57;;;6.18;;
6203;SDS011;3135;42.602;23.468;2023-01-10T02:54:50;12.53;;;6.33;;
6203;SDS011;3135;42.602;23.468;2023-01-10T03:10:57;18.48;;;7.95;;
6203;SDS011;3135;42.602;23.468;2023-01-10T03:13:30;20.85;;;8.60;;
6203;SDS011;3135;42.602;23.468;2023-01-10T03:16:16;19.10;;;7.22;;
6203;SDS011;3135;42.602;23.468;2023-01-10T03:18:45;17.37;;;7.67;;
6203;SDS011;3135;42.602;23.468;2023-01-10T03:21:16;22.58;;;8.38;;
6203;SDS011;3135;42.602;23.468;2023-01-10T03:23:44;20.38;;;8.43;;
6203;SDS011;3135;42.602;23.468;2023-01-10T03:26:13;22.52;;;9.50;;
6203;SDS011;3135;42.602;23.468;2023-01-10T03:28:44;18.85;;;8.18;;
6203;SDS011;3135;42.602;23.468;2023-01-10T03:31:21;19.48;;;7.40;;
6203;SDS011;3135;42.602;23.468;2023-01-10T03:33:50;20.60;;;8.15;;
6203;SDS011;3135;42.602;23.468;2023-01-10T03:41:49;21.67;;;8.25;;
6203;SDS011;3135;42.602;23.468;2023-01-10T03:44:32;20.77;;;7.90;;
6203;SDS011;3135;42.602;23.468;2023-01-10T03:47:12;21.13;;;7.60;;
6203;SDS011;3135;42.602;23.468;2023-01-10T03:49:47;18.73;;;7.13;;
6203;SDS011;3135;42.602;23.468;2023-01-10T03:52:52;15.82;;;7.20;;
6203;SDS011;3135;42.602;23.468;2023-01-10T03:55:18;21.83;;;8.43;;
6203;SDS011;3135;42.602;23.468;2023-01-10T03:57:46;22.25;;;8.38;;
6203;SDS011;3135;42.602;23.468;2023-01-10T04:00:13;18.27;;;7.93;;
6203;SDS011;3135;42.602;23.468;2023-01-10T04:02:40;19.87;;;8.10;;
6203;SDS011;3135;42.602;23.468;2023-01-10T04:05:05;19.15;;;8.05;;
6203;SDS011;3135;42.602;23.468;2023-01-10T04:07:32;20.23;;;7.88;;
6203;SDS011;3135;42.602;23.468;2023-01-10T04:09:58;21.17;;;7.60;;
6203;SDS011;3135;42.602;23.468;2023-01-10T04:12:24;19.70;;;8.17;;
6203;SDS011;3135;42.602;23.468;2023-01-10T04:14:49;19.83;;;7.97;;
6203;SDS011;3135;42.602;23.468;2023-01-10T04:17:15;20.50;;;8.27;;
6203;SDS011;3135;42.602;23.468;2023-01-10T04:19:41;18.60;;;7.60;;
6203;SDS011;3135;42.602;23.468;2023-01-10T04:22:07;21.33;;;7.93;;
6203;SDS011;3135;42.602;23.468;2023-01-10T04:24:33;22.47;;;8.40;;
6203;SDS011;3135;42.602;23.468;2023-01-10T04:26:59;16.65;;;6.25;;
6203;SDS011;3135;42.602;23.468;2023-01-10T04:29:24;19.58;;;7.57;;
6203;SDS011;3135;42.602;23.468;2023-01-10T04:31:51;15.70;;;6.60;;
6203;SDS011;3135;42.602;23.468;2023-01-10T04:34:16;17.00;;;6.83;;
6203;SDS011;3135;42.602;23.468;2023-01-10T04:36:44;15.10;;;6.23;;
6203;SDS011;3135;42.602;23.468;2023-01-10T04:39:10;13.93;;;5.83;;
6203;SDS011;3135;42.602;23.468;2023-01-10T04:41:36;16.90;;;6.30;;
6203;SDS011;3135;42.602;23.468;2023-01-10T04:44:02;16.37;;;6.57;;
6203;SDS011;3135;42.602;23.468;2023-01-10T04:46:27;13.07;;;6.18;;
6203;SDS011;3135;42.602;23.468;2023-01-10T04:48:53;29.27;;;13.10;;
6203;SDS011;3135;42.602;23.468;2023-01-10T04:51:19;26.02;;;10.52;;
6203;SDS011;3135;42.602;23.468;2023-01-10T04:53:45;35.07;;;14.23;;
6203;SDS011;3135;42.602;23.468;2023-01-10T04:56:13;31.50;;;13.90;;
6203;SDS011;3135;42.602;23.468;2023-01-10T04:58:41;48.30;;;23.05;;
6203;SDS011;3135;42.602;23.468;2023-01-10T05:01:10;19.13;;;7.57;;
6203;SDS011;3135;42.602;23.468;2023-01-10T05:03:38;17.15;;;7.07;;
6203;SDS011;3135;42.602;23.468;2023-01-10T05:06:03;11.93;;;5.47;;
6203;SDS011;3135;42.602;23.468;2023-01-10T05:08:29;16.05;;;6.97;;
6203;SDS011;3135;42.602;23.468;2023-01-10T05:10:55;15.97;;;7.53;;
6203;SDS011;3135;42.602;23.468;2023-01-10T05:13:20;29.73;;;14.70;;
6203;SDS011;3135;42.602;23.468;2023-01-10T05:15:46;41.60;;;15.43;;
6203;SDS011;3135;42.602;23.468;2023-01-10T05:18:11;19.43;;;7.53;;
6203;SDS011;3135;42.602;23.468;2023-01-10T05:20:36;18.53;;;7.57;;
6203;SDS011;3135;42.602;23.468;2023-01-10T05:23:02;17.27;;;7.72;;
6203;SDS011;3135;42.602;23.468;2023-01-10T05:25:27;16.65;;;7.43;;
6203;SDS011;3135;42.602;23.468;2023-01-10T05:27:53;16.95;;;7.50;;
6203;SDS011;3135;42.602;23.468;2023-01-10T05:30:19;26.60;;;11.50;;
6203;SDS011;3135;42.602;23.468;2023-01-10T05:32:45;16.48;;;6.80;;
6203;SDS011;3135;42.602;23.468;2023-01-10T05:35:10;20.98;;;9.52;;
6203;SDS011;3135;42.602;23.468;2023-01-10T05:37:36;20.08;;;8.60;;
6203;SDS011;3135;42.602;23.468;2023-01-10T05:40:02;20.00;;;9.43;;
6203;SDS011;3135;42.602;23.468;2023-01-10T05:42:28;15.75;;;6.80;;
6203;SDS011;3135;42.602;23.468;2023-01-10T05:44:53;17.27;;;6.67;;
6203;SDS011;3135;42.602;23.468;2023-01-10T05:47:19;16.17;;;7.13;;
6203;SDS011;3135;42.602;23.468;2023-01-10T05:49:44;27.27;;;10.10;;
6203;SDS011;3135;42.602;23.468;2023-01-10T05:52:09;91.97;;;24.43;;
6203;SDS011;3135;42.602;23.468;2023-01-10T05:54:35;29.13;;;11.03;;
6203;SDS011;3135;42.602;23.468;2023-01-10T05:57:00;19.63;;;8.37;;
6203;SDS011;3135;42.602;23.468;2023-01-10T05:59:26;19.02;;;7.75;;
6203;SDS011;3135;42.602;23.468;2023-01-10T06:01:51;16.98;;;6.93;;
6203;SDS011;3135;42.602;23.468;2023-01-10T06:04:16;16.10;;;7.10;;
6203;SDS011;3135;42.602;23.468;2023-01-10T06:06:42;16.43;;;7.13;;
6203;SDS011;3135;42.602;23.468;2023-01-10T06:09:07;19.10;;;8.13;;
6203;SDS011;3135;42.602;23.468;2023-01-10T06:11:33;14.03;;;6.70;;
6203;SDS011;3135;42.602;23.468;2023-01-10T06:14:01;16.27;;;7.47;;
6203;SDS011;3135;42.602;23.468;2023-01-10T06:16:27;18.07;;;7.57;;
6203;SDS011;3135;42.602;23.468;2023-01-10T06:18:52;17.48;;;8.27;;
6203;SDS011;3135;42.602;23.468;2023-01-10T06:21:18;13.98;;;7.00;;
6203;SDS011;3135;42.602;23.468;2023-01-10T06:23:44;17.27;;;7.00;;
6203;SDS011;3135;42.602;23.468;2023-01-10T06:26:09;14.67;;;6.93;;
6203;SDS011;3135;42.602;23.468;2023-01-10T06:28:34;16.20;;;6.50;;
6203;SDS011;3135;42.602;23.468;2023-01-10T06:31:00;14.48;;;6.63;;
6203;SDS011;3135;42.602;23.468;2023-01-10T06:33:25;16.30;;;6.65;;
6203;SDS011;3135;42.602;23.468;2023-01-10T06:35:51;14.20;;;6.60;;
6203;SDS011;3135;42.602;23.468;2023-01-10T06:38:16;17.50;;;7.40;;
6203;SDS011;3135;42.602;23.468;2023-01-10T06:40:42;18.33;;;7.77;;
6203;SDS011;3135;42.602;23.468;2023-01-10T06:43:08;16.55;;;7.30;;
6203;SDS011;3135;42.602;23.468;2023-01-10T06:45:33;16.43;;;7.20;;
6203;SDS011;3135;42.602;23.468;2023-01-10T06:47:59;18.43;;;7.43;;
6203;SDS011;3135;42.602;23.468;2023-01-10T06:50:24;17.57;;;7.90;;
6203;SDS011;3135;42.602;23.468;2023-01-10T06:52:56;21.13;;;8.40;;
6203;SDS011;3135;42.602;23.468;2023-01-10T06:55:26;17.50;;;7.43;;
6203;SDS011;3135;42.602;23.468;2023-01-10T06:57:59;17.13;;;7.28;;
6203;SDS011;3135;42.602;23.468;2023-01-10T07:00:26;17.85;;;7.25;;
6203;SDS011;3135;42.602;23.468;2023-01-10T07:02:53;18.30;;;8.30;;
6203;SDS011;3135;42.602;23.468;2023-01-10T07:05:22;23.25;;;9.50;;
6203;SDS011;3135;42.602;23.468;2023-01-10T07:07:48;21.75;;;8.90;;
6203;SDS011;3135;42.602;23.468;2023-01-10T07:10:14;18.83;;;8.02;;
6203;SDS011;3135;42.602;23.468;2023-01-10T07:12:39;24.20;;;9.73;;
6203;SDS011;3135;42.602;23.468;2023-01-10T07:15:05;24.53;;;9.60;;
6203;SDS011;3135;42.602;23.468;2023-01-10T07:17:31;29.73;;;12.45;;
6203;SDS011;3135;42.602;23.468;2023-01-10T07:19:56;31.13;;;13.10;;
6203;SDS011;3135;42.602;23.468;2023-01-10T07:22:22;27.37;;;11.37;;
6203;SDS011;3135;42.602;23.468;2023-01-10T07:24:47;28.13;;;11.37;;
6203;SDS011;3135;42.602;23.468;2023-01-10T07:27:13;27.07;;;10.77;;
6203;SDS011;3135;42.602;23.468;2023-01-10T07:29:38;19.45;;;8.32;;
6203;SDS011;3135;42.602;23.468;2023-01-10T07:32:04;25.00;;;10.57;;
6203;SDS011;3135;42.602;23.468;2023-01-10T07:34:30;25.17;;;10.43;;
6203;SDS011;3135;42.602;23.468;2023-01-10T07:36:55;21.85;;;8.95;;
6203;SDS011;3135;42.602;23.468;2023-01-10T07:39:21;19.83;;;8.40;;
6203;SDS011;3135;42.602;23.468;2023-01-10T07:41:47;33.53;;;13.60;;
6203;SDS011;3135;42.602;23.468;2023-01-10T07:44:13;16.05;;;7.10;;
6203;SDS011;3135;42.602;23.468;2023-01-10T07:46:39;13.57;;;5.90;;
6203;SDS011;3135;42.602;23.468;2023-01-10T07:49:04;16.07;;;6.47;;
6203;SDS011;3135;42.602;23.468;2023-01-10T07:51:30;21.00;;;8.40;;
6203;SDS011;3135;42.602;23.468;2023-01-10T07:53:55;17.60;;;8.13;;
6203;SDS011;3135;42.602;23.468;2023-01-10T07:56:21;13.33;;;6.10;;
6203;SDS011;3135;42.602;23.468;2023-01-10T07:58:47;14.82;;;6.50;;
6203;SDS011;3135;42.602;23.468;2023-01-10T08:01:13;15.05;;;6.05;;
6203;SDS011;3135;42.602;23.468;2023-01-10T08:03:39;13.15;;;5.80;;
6203;SDS011;3135;42.602;23.468;2023-01-10T08:06:05;13.63;;;5.83;;
6203;SDS011;3135;42.602;23.468;2023-01-10T08:08:32;14.25;;;7.40;;
6203;SDS011;3135;42.602;23.468;2023-01-10T08:10:58;12.75;;;6.28;;
6203;SDS011;3135;42.602;23.468;2023-01-10T08:13:26;10.77;;;5.05;;
6203;SDS011;3135;42.602;23.468;2023-01-10T08:15:52;9.87;;;5.20;;
6203;SDS011;3135;42.602;23.468;2023-01-10T08:18:18;14.10;;;6.05;;
6203;SDS011;3135;42.602;23.468;2023-01-10T08:20:44;12.27;;;5.70;;
6203;SDS011;3135;42.602;23.468;2023-01-10T08:23:13;5.93;;;3.38;;
6203;SDS011;3135;42.602;23.468;2023-01-10T08:25:39;6.18;;;3.63;;
6203;SDS011;3135;42.602;23.468;2023-01-10T08:28:04;16.98;;;7.75;;
6203;SDS011;3135;42.602;23.468;2023-01-10T08:30:30;10.40;;;5.18;;
6203;SDS011;3135;42.602;23.468;2023-01-10T08:32:56;6.07;;;3.60;;
6203;SDS011;3135;42.602;23.468;2023-01-10T08:35:21;40.53;;;16.27;;
6203;SDS011;3135;42.602;23.468;2023-01-10T08:37:46;25.70;;;10.90;;
6203;SDS011;3135;42.602;23.468;2023-01-10T08:40:12;10.40;;;5.03;;
6203;SDS011;3135;42.602;23.468;2023-01-10T08:42:37;14.63;;;7.10;;
6203;SDS011;3135;42.602;23.468;2023-01-10T08:45:03;11.77;;;6.03;;
6203;SDS011;3135;42.602;23.468;2023-01-10T08:47:29;9.60;;;4.95;;
6203;SDS011;3135;42.602;23.468;2023-01-10T08:49:54;8.83;;;4.60;;
6203;SDS011;3135;42.602;23.468;2023-01-10T08:52:20;10.17;;;5.00;;
6203;SDS011;3135;42.602;23.468;2023-01-10T08:54:45;8.20;;;4.30;;
6203;SDS011;3135;42.602;23.468;2023-01-10T08:57:11;10.73;;;5.70;;
6203;SDS011;3135;42.602;23.468;2023-01-10T08:59:36;8.87;;;4.63;;
6203;SDS011;3135;42.602;23.468;2023-01-10T09:02:02;18.70;;;7.77;;
6203;SDS011;3135;42.602;23.468;2023-01-10T09:04:29;9.82;;;5.40;;
6203;SDS011;3135;42.602;23.468;2023-01-10T09:06:55;7.60;;;4.15;;
6203;SDS011;3135;42.602;23.468;2023-01-10T09:09:21;7.18;;;4.43;;
6203;SDS011;3135;42.602;23.468;2023-01-10T09:11:47;9.18;;;4.65;;
6203;SDS011;3135;42.602;23.468;2023-01-10T09:14:12;8.20;;;5.03;;
6203;SDS011;3135;42.602;23.468;2023-01-10T09:16:39;7.18;;;5.00;;
6203;SDS011;3135;42.602;23.468;2023-01-10T09:19:04;14.17;;;6.93;;
6203;SDS011;3135;42.602;23.468;2023-01-10T09:21:30;35.93;;;11.03;;
6203;SDS011;3135;42.602;23.468;2023-01-10T09:23:55;51.50;;;11.00;;
6203;SDS011;3135;42.602;23.468;2023-01-10T09:26:20;80.70;;;12.03;;
6203;SDS011;3135;42.602;23.468;2023-01-10T09:28:46;236.93;;;13.70;;
6203;SDS011;3135;42.602;23.468;2023-01-10T09:31:13;242.93;;;15.05;;
6203;SDS011;3135;42.602;23.468;2023-01-10T09:33:38;61.57;;;12.87;;
6203;SDS011;3135;42.602;23.468;2023-01-10T09:36:06;102.43;;;16.40;;
6203;SDS011;3135;42.602;23.468;2023-01-10T09:38:32;61.97;;;12.82;;
6203;SDS011;3135;42.602;23.468;2023-01-10T09:52:12;46.50;;;16.05;;
6203;SDS011;3135;42.602;23.468;2023-01-10T09:54:46;41.75;;;15.20;;
6203;SDS011;3135;42.602;23.468;2023-01-10T09:57:18;42.80;;;14.90;;
6203;SDS011;3135;42.602;23.468;2023-01-10T09:59:46;47.72;;;15.23;;
6203;SDS011;3135;42.602;23.468;2023-01-10T10:04:53;49.70;;;13.87;;
6203;SDS011;3135;42.602;23.468;2023-01-10T10:07:22;58.13;;;17.87;;
6203;SDS011;3135;42.602;23.468;2023-01-10T10:09:47;153.47;;;13.03;;
6203;SDS011;3135;42.602;23.468;2023-01-10T10:12:29;63.78;;;13.00;;
6203;SDS011;3135;42.602;23.468;2023-01-10T10:18:09;46.30;;;14.43;;
6203;SDS011;3135;42.602;23.468;2023-01-10T10:28:42;81.22;;;25.30;;
6203;SDS011;3135;42.602;23.468;2023-01-10T10:34:06;21.55;;;9.85;;
6203;SDS011;3135;42.602;23.468;2023-01-10T10:36:52;27.63;;;12.10;;
6203;SDS011;3135;42.602;23.468;2023-01-10T10:39:22;27.90;;;12.03;;
6203;SDS011;3135;42.602;23.468;2023-01-10T10:41:58;13.17;;;6.23;;
6203;SDS011;3135;42.602;23.468;2023-01-10T10:47:16;6.22;;;3.47;;
6203;SDS011;3135;42.602;23.468;2023-01-10T10:49:50;3.85;;;2.97;;
6203;SDS011;3135;42.602;23.468;2023-01-10T10:52:22;3.08;;;2.35;;
6203;SDS011;3135;42.602;23.468;2023-01-10T10:54:56;3.17;;;2.58;;
6203;SDS011;3135;42.602;23.468;2023-01-10T10:57:23;2.97;;;2.28;;
6203;SDS011;3135;42.602;23.468;2023-01-10T10:59:51;3.20;;;2.30;;
6203;SDS011;3135;42.602;23.468;2023-01-10T11:04:57;19.15;;;8.77;;
6203;SDS011;3135;42.602;23.468;2023-01-10T11:07:24;14.27;;;6.80;;
6203;SDS011;3135;42.602;23.468;2023-01-10T11:09:53;26.48;;;12.13;;
6203;SDS011;3135;42.602;23.468;2023-01-10T11:12:20;19.83;;;8.90;;
6203;SDS011;3135;42.602;23.468;2023-01-10T11:14:50;40.42;;;19.10;;
6203;SDS011;3135;42.602;23.468;2023-01-10T11:17:26;56.27;;;24.23;;
6203;SDS011;3135;42.602;23.468;2023-01-10T11:20:14;68.97;;;18.48;;
6203;SDS011;3135;42.602;23.468;2023-01-10T11:22:47;72.68;;;16.15;;
6203;SDS011;3135;42.602;23.468;2023-01-10T11:25:15;57.28;;;17.63;;
6203;SDS011;3135;42.602;23.468;2023-01-10T11:27:49;48.27;;;17.07;;
6203;SDS011;3135;42.602;23.468;2023-01-10T11:30:18;79.73;;;16.90;;
6203;SDS011;3135;42.602;23.468;2023-01-10T11:33:15;70.57;;;22.40;;
6203;SDS011;3135;42.602;23.468;2023-01-10T11:35:52;111.55;;;24.90;;
6203;SDS011;3135;42.602;23.468;2023-01-10T11:38:22;100.18;;;23.85;;
6203;SDS011;3135;42.602;23.468;2023-01-10T11:40:52;141.98;;;24.17;;
6203;SDS011;3135;42.602;23.468;2023-01-10T11:43:27;67.45;;;22.33;;
6203;SDS011;3135;42.602;23.468;2023-01-10T11:46:04;100.03;;;20.85;;
6203;SDS011;3135;42.602;23.468;2023-01-10T11:53:54;113.25;;;19.88;;
6203;SDS011;3135;42.602;23.468;2023-01-10T11:56:25;129.63;;;20.20;;
6203;SDS011;3135;42.602;23.468;2023-01-10T11:58:53;113.78;;;20.23;;
6203;SDS011;3135;42.602;23.468;2023-01-10T12:04:14;60.42;;;20.05;;
6203;SDS011;3135;42.602;23.468;2023-01-10T12:06:42;66.10;;;19.05;;
6203;SDS011;3135;42.602;23.468;2023-01-10T12:14:44;42.30;;;16.65;;
6203;SDS011;3135;42.602;23.468;2023-01-10T12:17:14;40.55;;;16.80;;
6203;SDS011;3135;42.602;23.468;2023-01-10T12:19:54;36.35;;;15.48;;
6203;SDS011;3135;42.602;23.468;2023-01-10T12:22:26;35.10;;;15.23;;
6203;SDS011;3135;42.602;23.468;2023-01-10T12:24:59;36.03;;;14.90;;
6203;SDS011;3135;42.602;23.468;2023-01-10T12:27:29;39.53;;;15.07;;
6203;SDS011;3135;42.602;23.468;2023-01-10T12:30:09;34.38;;;15.30;;
6203;SDS011;3135;42.602;23.468;2023-01-10T12:32:40;35.45;;;14.60;;
6203;SDS011;3135;42.602;23.468;2023-01-10T12:35:19;34.33;;;15.05;;
6203;SDS011;3135;42.602;23.468;2023-01-10T12:37:50;39.45;;;14.65;;
6203;SDS011;3135;42.602;23.468;2023-01-10T12:40:36;62.85;;;18.55;;
6203;SDS011;3135;42.602;23.468;2023-01-10T12:46:31;95.23;;;18.83;;
6203;SDS011;3135;42.602;23.468;2023-01-10T12:49:30;46.85;;;18.70;;
6203;SDS011;3135;42.602;23.468;2023-01-10T12:52:08;85.15;;;17.95;;
6203;SDS011;3135;42.602;23.468;2023-01-10T12:54:39;95.47;;;17.40;;
6203;SDS011;3135;42.602;23.468;2023-01-10T12:57:18;120.63;;;18.20;;
6203;SDS011;3135;42.602;23.468;2023-01-10T13:00:06;104.57;;;18.48;;
6203;SDS011;3135;42.602;23.468;2023-01-10T13:02:45;81.63;;;18.00;;
6203;SDS011;3135;42.602;23.468;2023-01-10T13:05:14;47.27;;;17.33;;
6203;SDS011;3135;42.602;23.468;2023-01-10T13:07:42;39.35;;;16.00;;
6203;SDS011;3135;42.602;23.468;2023-01-10T13:10:12;36.58;;;14.98;;
6203;SDS011;3135;42.602;23.468;2023-01-10T13:12:43;36.38;;;14.70;;
6203;SDS011;3135;42.602;23.468;2023-01-10T13:15:22;36.53;;;14.55;;
6203;SDS011;3135;42.602;23.468;2023-01-10T13:21:00;34.53;;;14.52;;
6203;SDS011;3135;42.602;23.468;2023-01-10T13:23:32;36.08;;;13.90;;
6203;SDS011;3135;42.602;23.468;2023-01-10T13:26:02;28.13;;;12.18;;
6203;SDS011;3135;42.602;23.468;2023-01-10T13:28:39;26.65;;;11.75;;
6203;SDS011;3135;42.602;23.468;2023-01-10T13:31:27;26.70;;;10.65;;
6203;SDS011;3135;42.602;23.468;2023-01-10T13:33:59;23.20;;;9.98;;
6203;SDS011;3135;42.602;23.468;2023-01-10T13:36:30;18.90;;;9.45;;
6203;SDS011;3135;42.602;23.468;2023-01-10T13:39:04;22.10;;;9.27;;
6203;SDS011;3135;42.602;23.468;2023-01-10T13:50:42;22.75;;;9.05;;
6203;SDS011;3135;42.602;23.468;2023-01-10T14:03:42;9.82;;;5.88;;
6203;SDS011;3135;42.602;23.468;2023-01-10T14:08:49;9.43;;;5.30;;
6203;SDS011;3135;42.602;23.468;2023-01-10T14:12:06;10.20;;;5.47;;
6203;SDS011;3135;42.602;23.468;2023-01-10T14:14:38;10.48;;;5.70;;
6203;SDS011;3135;42.602;23.468;2023-01-10T14:19:44;22.65;;;10.07;;
6203;SDS011;3135;42.602;23.468;2023-01-10T14:22:22;14.30;;;7.30;;
6203;SDS011;3135;42.602;23.468;2023-01-10T14:24:55;12.13;;;5.78;;
6203;SDS011;3135;42.602;23.468;2023-01-10T14:27:23;11.65;;;6.40;;
6203;SDS011;3135;42.602;23.468;2023-01-10T14:29:58;13.18;;;6.20;;
6203;SDS011;3135;42.602;23.468;2023-01-10T14:35:00;12.15;;;6.25;;
6203;SDS011;3135;42.602;23.468;2023-01-10T14:37:30;11.48;;;5.70;;
6203;SDS011;3135;42.602;23.468;2023-01-10T14:40:47;11.80;;;6.10;;
6203;SDS011;3135;42.602;23.468;2023-01-10T14:42:56;12.68;;;6.55;;
6203;SDS011;3135;42.602;23.468;2023-01-10T14:48:22;12.73;;;6.70;;
6203;SDS011;3135;42.602;23.468;2023-01-10T14:50:50;9.25;;;5.32;;
6203;SDS011;3135;42.602;23.468;2023-01-10T14:53:26;10.63;;;5.00;;
6203;SDS011;3135;42.602;23.468;2023-01-10T14:55:53;9.33;;;4.80;;
6203;SDS011;3135;42.602;23.468;2023-01-10T14:58:19;9.68;;;5.38;;
6203;SDS011;3135;42.602;23.468;2023-01-10T15:00:46;11.23;;;5.85;;
6203;SDS011;3135;42.602;23.468;2023-01-10T15:03:18;9.20;;;5.00;;
6203;SDS011;3135;42.602;23.468;2023-01-10T15:05:51;12.93;;;6.60;;
6203;SDS011;3135;42.602;23.468;2023-01-10T15:08:23;10.95;;;6.07;;
6203;SDS011;3135;42.602;23.468;2023-01-10T15:10:54;8.52;;;4.88;;
6203;SDS011;3135;42.602;23.468;2023-01-10T15:13:25;9.95;;;4.68;;
6203;SDS011;3135;42.602;23.468;2023-01-10T15:15:52;10.95;;;5.88;;
6203;SDS011;3135;42.602;23.468;2023-01-10T15:18:23;7.95;;;4.63;;
6203;SDS011;3135;42.602;23.468;2023-01-10T15:20:54;4.97;;;3.47;;
6203;SDS011;3135;42.602;23.468;2023-01-10T15:23:21;5.88;;;3.45;;
6203;SDS011;3135;42.602;23.468;2023-01-10T15:25:54;10.57;;;5.28;;
6203;SDS011;3135;42.602;23.468;2023-01-10T15:28:22;6.20;;;3.92;;
6203;SDS011;3135;42.602;23.468;2023-01-10T15:30:47;10.63;;;4.77;;
6203;SDS011;3135;42.602;23.468;2023-01-10T15:33:14;5.90;;;3.10;;
6203;SDS011;3135;42.602;23.468;2023-01-10T15:35:43;27.48;;;11.48;;
6203;SDS011;3135;42.602;23.468;2023-01-10T15:38:15;5.67;;;3.73;;
6203;SDS011;3135;42.602;23.468;2023-01-10T15:40:45;4.30;;;2.50;;
6203;SDS011;3135;42.602;23.468;2023-01-10T15:43:25;2.55;;;2.20;;
6203;SDS011;3135;42.602;23.468;2023-01-10T15:45:53;4.57;;;3.28;;
6203;SDS011;3135;42.602;23.468;2023-01-10T15:56:23;2.10;;;1.80;;
6203;SDS011;3135;42.602;23.468;2023-01-10T15:58:52;2.22;;;1.90;;
6203;SDS011;3135;42.602;23.468;2023-01-10T16:01:19;3.77;;;2.20;;
6203;SDS011;3135;42.602;23.468;2023-01-10T16:03:48;8.90;;;5.97;;
6203;SDS011;3135;42.602;23.468;2023-01-10T16:06:33;4.35;;;3.80;;
6203;SDS011;3135;42.602;23.468;2023-01-10T16:09:02;1.50;;;1.40;;
6203;SDS011;3135;42.602;23.468;2023-01-10T16:11:38;3.17;;;2.30;;
6203;SDS011;3135;42.602;23.468;2023-01-10T16:14:24;1.50;;;1.40;;
6203;SDS011;3135;42.602;23.468;2023-01-10T16:16:49;0.98;;;0.90;;
6203;SDS011;3135;42.602;23.468;2023-01-10T16:19:15;2.83;;;1.60;;
6203;SDS011;3135;42.602;23.468;2023-01-10T16:21:44;2.93;;;1.83;;
6203;SDS011;3135;42.602;23.468;2023-01-10T16:24:24;2.38;;;2.17;;
6203;SDS011;3135;42.602;23.468;2023-01-10T16:26:52;2.65;;;2.25;;
6203;SDS011;3135;42.602;23.468;2023-01-10T16:29:19;12.70;;;8.35;;
6203;SDS011;3135;42.602;23.468;2023-01-10T16:31:46;1.40;;;1.30;;
6203;SDS011;3135;42.602;23.468;2023-01-10T16:34:12;1.58;;;1.08;;
6203;SDS011;3135;42.602;23.468;2023-01-10T16:36:39;1.90;;;0.90;;
6203;SDS011;3135;42.602;23.468;2023-01-10T16:39:06;1.58;;;1.40;;
6203;SDS011;3135;42.602;23.468;2023-01-10T16:41:41;1.45;;;0.93;;
6203;SDS011;3135;42.602;23.468;2023-01-10T16:44:26;0.88;;;0.70;;
6203;SDS011;3135;42.602;23.468;2023-01-10T16:46:52;2.47;;;2.00;;
6203;SDS011;3135;42.602;23.468;2023-01-10T16:49:18;1.30;;;0.83;;
6203;SDS011;3135;42.602;23.468;2023-01-10T16:51:44;0.93;;;0.88;;
6203;SDS011;3135;42.602;23.468;2023-01-10T16:54:17;0.98;;;0.98;;
6203;SDS011;3135;42.602;23.468;2023-01-10T16:56:44;2.07;;;1.80;;
6203;SDS011;3135;42.602;23.468;2023-01-10T16:59:10;0.98;;;0.95;;
6203;SDS011;3135;42.602;23.468;2023-01-10T17:01:37;1.30;;;1.20;;
6203;SDS011;3135;42.602;23.468;2023-01-10T17:04:06;0.50;;;0.50;;